createdAt,value
2023-04-21T00:00:26.320Z,4.80
2023-04-21T00:04:29.786Z,4.80
2023-04-21T00:08:33.401Z,4.70
2023-04-21T00:12:36.895Z,4.80
2023-04-21T00:16:41.685Z,4.70
2023-04-21T00:20:45.141Z,4.70
2023-04-21T00:24:48.461Z,4.70
2023-04-21T00:28:51.658Z,4.70
2023-04-21T00:32:56.634Z,4.60
2023-04-21T00:36:59.827Z,4.60
2023-04-21T00:41:03.149Z,4.60
2023-04-21T00:45:07.266Z,4.60
2023-04-21T00:49:13.327Z,4.60
2023-04-21T00:53:17.187Z,4.50
2023-04-21T00:57:21.531Z,4.50
2023-04-21T01:01:24.846Z,4.50
2023-04-21T01:05:29.508Z,4.50
2023-04-21T01:09:33.234Z,4.50
2023-04-21T01:13:36.537Z,4.50
2023-04-21T01:17:40.422Z,4.40
2023-04-21T01:21:45.212Z,4.40
2023-04-21T01:25:48.432Z,4.50
2023-04-21T01:29:53.781Z,4.50
2023-04-21T01:33:56.970Z,4.50
2023-04-21T01:38:02.213Z,4.60
2023-04-21T01:42:05.950Z,4.60
2023-04-21T01:46:09.375Z,4.60
2023-04-21T01:50:12.670Z,4.70
2023-04-21T01:54:17.338Z,4.70
2023-04-21T01:58:20.536Z,4.70
2023-04-21T02:02:23.927Z,4.70
2023-04-21T02:06:27.215Z,4.70
2023-04-21T02:10:32.779Z,4.70
2023-04-21T02:14:35.959Z,4.70
2023-04-21T02:18:40.212Z,4.60
2023-04-21T02:22:43.387Z,4.60
2023-04-21T02:26:47.952Z,4.60
2023-04-21T02:30:51.496Z,4.60
2023-04-21T02:34:54.656Z,4.50
2023-04-21T02:38:59.041Z,4.50
2023-04-21T02:43:04.478Z,4.50
2023-04-21T02:47:07.785Z,4.50
2023-04-21T02:51:13.887Z,4.60
2023-04-21T02:55:17.233Z,4.60
2023-04-21T02:59:21.988Z,4.60
2023-04-21T03:03:25.741Z,4.60
2023-04-21T03:07:29.278Z,4.50
2023-04-21T03:11:33.896Z,4.50
2023-04-21T03:15:38.991Z,4.50
2023-04-21T03:19:42.228Z,4.60
2023-04-21T03:23:45.534Z,4.70
2023-04-21T03:27:49.113Z,4.70
2023-04-21T03:31:53.660Z,4.60
2023-04-21T03:35:57.028Z,4.50
2023-04-21T03:40:00.418Z,4.40
2023-04-21T03:44:03.845Z,4.30
2023-04-21T03:48:08.578Z,4.30
2023-04-21T03:52:12.075Z,4.20
2023-04-21T03:56:15.517Z,4.10
2023-04-21T04:00:18.825Z,4.00
2023-04-21T04:04:23.537Z,4.10
2023-04-21T04:08:28.805Z,4.10
2023-04-21T04:12:32.049Z,4.00
2023-04-21T04:16:36.714Z,4.00
2023-04-21T04:20:41.461Z,4.20
2023-04-21T04:24:45.794Z,4.30
2023-04-21T04:28:49.209Z,4.40
2023-04-21T04:32:53.056Z,4.70
2023-04-21T04:36:57.832Z,4.90
2023-04-21T04:41:02.349Z,5.10
2023-04-21T04:45:08.965Z,5.20
2023-04-21T04:49:12.429Z,5.60
2023-04-21T04:53:18.718Z,5.90
2023-04-21T04:57:22.020Z,6.20
2023-04-21T05:01:30.313Z,6.50
2023-04-21T05:05:34.312Z,6.40
2023-04-21T05:09:39.061Z,6.70
2023-04-21T05:13:42.387Z,6.90
2023-04-21T05:17:45.829Z,7.10
2023-04-21T05:21:49.073Z,7.20
2023-04-21T05:25:53.649Z,7.40
2023-04-21T05:29:56.866Z,7.40
2023-04-21T05:34:00.267Z,7.50
2023-04-21T05:38:03.525Z,7.50
2023-04-21T05:42:11.153Z,7.60
2023-04-21T05:46:16.680Z,7.70
2023-04-21T05:50:20.095Z,7.80
2023-04-21T05:54:23.553Z,7.90
2023-04-21T05:58:28.130Z,8.00
2023-04-21T06:02:32.867Z,8.10
2023-04-21T06:06:36.758Z,8.20
2023-04-21T06:10:40.202Z,8.30
2023-04-21T06:14:44.801Z,8.40
2023-04-21T06:18:48.185Z,8.60
2023-04-21T06:22:51.711Z,8.70
2023-04-21T06:26:55.037Z,9.00
2023-04-21T06:30:59.874Z,9.30
2023-04-21T06:35:03.064Z,9.60
2023-04-21T06:39:06.857Z,10.00
2023-04-21T06:43:10.602Z,10.50
2023-04-21T06:47:16.982Z,11.00
2023-04-21T06:51:20.417Z,11.50
2023-04-21T06:55:41.107Z,12.00
2023-04-21T06:59:49.927Z,12.50
2023-04-21T07:08:17.877Z,13.40
2023-04-21T07:12:23.643Z,13.80
2023-04-21T07:16:27.430Z,14.30
2023-04-21T07:20:31.131Z,14.60
2023-04-21T07:24:37.512Z,14.90
2023-04-21T07:28:42.249Z,15.00
2023-04-21T07:32:46.491Z,15.10
2023-04-21T07:36:53.121Z,15.10
2023-04-21T07:40:58.424Z,15.20
2023-04-21T07:45:02.929Z,14.90
2023-04-21T07:49:06.873Z,14.70
2023-04-21T07:53:12.281Z,14.80
2023-04-21T07:57:17.843Z,14.80
2023-04-21T08:01:22.589Z,14.70
2023-04-21T08:05:30.238Z,14.40
2023-04-21T08:09:35.814Z,14.40
2023-04-21T08:13:41.832Z,14.20
2023-04-21T08:17:46.016Z,14.60
2023-04-21T08:21:50.368Z,14.60
2023-04-21T08:25:54.534Z,14.70
2023-04-21T08:30:00.328Z,14.60
2023-04-21T08:34:03.797Z,14.50
2023-04-21T08:38:08.800Z,14.20
2023-04-21T08:42:13.179Z,14.90
2023-04-21T08:46:18.681Z,15.40
2023-04-21T08:50:25.410Z,17.00
2023-04-21T08:54:30.089Z,19.10
2023-04-21T08:58:33.604Z,20.30
2023-04-21T09:03:00.760Z,20.60
2023-04-21T09:07:05.758Z,20.30
2023-04-21T09:11:09.297Z,18.30
2023-04-21T09:15:16.135Z,17.60
2023-04-21T09:19:22.687Z,18.60
2023-04-21T09:23:26.714Z,18.90
2023-04-21T09:27:30.859Z,19.20
2023-04-21T09:31:37.853Z,19.30
2023-04-21T09:35:42.662Z,19.00
2023-04-21T09:40:00.882Z,19.10
2023-04-21T09:44:11.987Z,19.30
2023-04-21T09:48:26.993Z,19.20
2023-04-21T09:52:48.743Z,19.10
2023-04-21T09:56:57.748Z,18.50
2023-04-21T10:01:03.191Z,18.00
2023-04-21T10:05:08.247Z,17.40
2023-04-21T10:09:15.788Z,17.40
2023-04-21T10:13:19.163Z,16.90
2023-04-21T10:17:26.101Z,17.30
2023-04-21T10:21:29.607Z,17.40
2023-04-21T10:25:34.389Z,18.00
2023-04-21T10:29:54.815Z,17.80
2023-04-21T10:34:18.512Z,16.90
2023-04-21T10:38:35.755Z,17.10
2023-04-21T10:42:40.419Z,17.30
2023-04-21T10:46:48.165Z,17.60
2023-04-21T10:50:51.740Z,18.00
2023-04-21T10:55:08.412Z,17.90
2023-04-21T10:59:13.434Z,17.70
2023-04-21T11:03:17.104Z,21.00
2023-04-21T11:07:21.798Z,24.50
2023-04-21T11:11:31.617Z,24.60
2023-04-21T11:15:40.823Z,24.60
2023-04-21T11:19:54.288Z,21.30
2023-04-21T11:24:12.282Z,20.40
2023-04-21T11:28:31.433Z,21.50
2023-04-21T11:32:45.325Z,21.50
2023-04-21T11:37:04.030Z,19.40
2023-04-21T11:41:11.681Z,18.90
2023-04-21T11:45:30.904Z,18.40
2023-04-21T11:49:46.594Z,18.20
2023-04-21T11:53:57.636Z,17.50
2023-04-21T11:58:06.692Z,17.30
2023-04-21T12:02:29.473Z,17.20
2023-04-21T12:06:45.205Z,16.90
2023-04-21T12:11:02.285Z,17.10
2023-04-21T12:15:11.716Z,17.20
2023-04-21T12:19:26.747Z,17.10
2023-04-21T12:23:33.863Z,17.10
2023-04-21T12:27:37.590Z,17.00
2023-04-21T12:31:41.181Z,16.50
2023-04-21T12:35:45.140Z,16.10
2023-04-21T12:39:50.155Z,16.10
2023-04-21T12:43:53.756Z,16.10
2023-04-21T12:47:58.572Z,16.10
2023-04-21T12:52:02.096Z,15.90
2023-04-21T12:56:07.590Z,15.70
2023-04-21T13:00:14.995Z,15.40
2023-04-21T13:04:18.648Z,15.20
2023-04-21T13:08:23.124Z,14.40
2023-04-21T13:12:32.101Z,13.70
2023-04-21T13:16:35.411Z,13.40
2023-04-21T13:20:38.760Z,13.20
2023-04-21T13:24:42.181Z,13.10
2023-04-21T13:28:48.030Z,13.10
2023-04-21T13:32:51.492Z,13.20
2023-04-21T13:36:55.330Z,13.10
2023-04-21T13:41:02.380Z,13.30
2023-04-21T13:45:16.356Z,13.30
2023-04-21T13:49:19.595Z,13.20
2023-04-21T13:53:23.179Z,12.90
2023-04-21T13:57:27.054Z,12.80
2023-04-21T14:01:32.361Z,12.80
2023-04-21T14:05:38.080Z,13.10
2023-04-21T14:09:42.372Z,13.20
2023-04-21T14:14:00.817Z,13.60
2023-04-21T14:18:11.387Z,13.80
2023-04-21T14:22:14.788Z,14.00
2023-04-21T14:26:18.034Z,14.20
2023-04-21T14:30:21.556Z,14.50
2023-04-21T14:34:26.954Z,14.80
2023-04-21T14:38:31.529Z,15.00
2023-04-21T14:42:34.911Z,15.40
2023-04-21T14:47:06.091Z,15.90
2023-04-21T14:51:13.326Z,16.50
2023-04-21T14:55:16.932Z,16.30
2023-04-21T14:59:23.191Z,16.20
2023-04-21T15:03:26.576Z,16.20
2023-04-21T15:07:31.275Z,16.30
2023-04-21T15:11:36.728Z,16.50
2023-04-21T15:15:39.947Z,16.40
2023-04-21T15:19:44.234Z,17.00
2023-04-21T15:23:49.147Z,17.20
2023-04-21T15:27:52.455Z,16.70
2023-04-21T15:31:55.738Z,16.20
2023-04-21T15:35:59.091Z,15.80
2023-04-21T15:40:05.085Z,15.90
2023-04-21T15:44:08.512Z,16.00
2023-04-21T15:48:13.162Z,16.10
2023-04-21T15:52:17.634Z,16.00
2023-04-21T15:56:22.269Z,15.80
2023-04-21T16:00:25.962Z,15.90
2023-04-21T16:04:29.426Z,15.80
2023-04-21T16:08:33.357Z,15.50
2023-04-21T16:12:38.065Z,15.20
2023-04-21T16:16:41.635Z,15.10
2023-04-21T16:20:47.014Z,14.90
2023-04-21T16:24:53.198Z,14.90
2023-04-21T16:28:57.838Z,14.80
2023-04-21T16:33:01.354Z,14.70
2023-04-21T16:37:05.009Z,14.60
2023-04-21T16:41:08.660Z,14.50
2023-04-21T16:45:14.118Z,14.40
2023-04-21T16:49:17.944Z,14.30
2023-04-21T16:53:23.074Z,14.10
2023-04-21T16:57:26.470Z,14.00
2023-04-21T17:01:31.514Z,13.70
2023-04-21T17:05:36.645Z,13.60
2023-04-21T17:09:42.667Z,13.50
2023-04-21T17:13:46.975Z,13.40
2023-04-21T17:17:51.639Z,13.40
2023-04-21T17:21:55.171Z,13.20
2023-04-21T17:25:58.863Z,13.10
2023-04-21T17:30:03.652Z,12.90
2023-04-21T17:34:08.441Z,12.80
2023-04-21T17:38:13.674Z,12.70
2023-04-21T17:42:17.579Z,12.60
2023-04-21T17:46:24.182Z,12.40
2023-04-21T17:50:48.628Z,12.20
2023-04-21T17:54:52.427Z,12.10
2023-04-21T17:58:56.949Z,11.90
2023-04-21T18:03:00.912Z,11.80
2023-04-21T18:07:06.550Z,11.70
2023-04-21T18:11:11.950Z,11.50
2023-04-21T18:15:17.893Z,11.30
2023-04-21T18:19:21.528Z,11.10
2023-04-21T18:23:28.916Z,10.90
2023-04-21T18:27:34.938Z,10.60
2023-04-21T18:31:39.881Z,10.40
2023-04-21T18:35:43.326Z,10.20
2023-04-21T18:39:48.211Z,10.00
2023-04-21T18:43:52.380Z,9.80
2023-04-21T18:47:57.190Z,9.60
2023-04-21T18:52:04.840Z,9.40
2023-04-21T18:56:10.678Z,9.30
2023-04-21T19:00:16.366Z,9.20
2023-04-21T19:04:20.032Z,9.00
2023-04-21T19:08:38.252Z,8.90
2023-04-21T19:12:48.282Z,8.70
2023-04-21T19:16:53.255Z,8.60
2023-04-21T19:20:57.134Z,8.40
2023-04-21T19:25:02.023Z,8.30
2023-04-21T19:29:11.903Z,8.20
2023-04-21T19:33:16.483Z,8.20
2023-04-21T19:37:21.298Z,8.20
2023-04-21T19:41:25.933Z,8.20
2023-04-21T19:45:31.456Z,8.20
2023-04-21T19:49:35.925Z,8.00
2023-04-21T19:53:41.333Z,8.00
2023-04-21T19:57:46.072Z,8.00
2023-04-21T20:01:53.059Z,7.90
2023-04-21T20:05:57.066Z,7.80
2023-04-21T20:10:00.862Z,7.80
2023-04-21T20:14:04.862Z,7.80
2023-04-21T20:18:09.914Z,7.70
2023-04-21T20:22:13.583Z,7.70
2023-04-21T20:26:17.408Z,7.60
2023-04-21T20:30:20.809Z,7.60
2023-04-21T20:34:27.053Z,7.60
2023-04-21T20:38:34.486Z,7.60
2023-04-21T20:42:37.870Z,7.60
2023-04-21T20:46:43.083Z,7.70
2023-04-21T20:50:50.622Z,7.70
2023-04-21T20:54:55.284Z,7.70
2023-04-21T20:58:59.401Z,7.70
2023-04-21T21:03:03.977Z,7.70
2023-04-21T21:07:08.805Z,7.80
2023-04-21T21:11:12.357Z,7.90
2023-04-21T21:15:15.795Z,7.90
2023-04-21T21:19:21.183Z,7.90
2023-04-21T21:23:26.351Z,7.90
2023-04-21T21:27:29.857Z,8.00
2023-04-21T21:31:33.095Z,8.00
2023-04-21T21:35:36.535Z,8.10
2023-04-21T21:39:41.101Z,8.10
2023-04-21T21:43:45.502Z,8.20
2023-04-21T21:47:48.699Z,8.20
2023-04-21T21:51:52.993Z,8.30
2023-04-21T21:55:57.545Z,8.30
2023-04-21T22:00:01.990Z,8.40
2023-04-21T22:04:05.655Z,8.40
2023-04-21T22:08:08.863Z,8.30
2023-04-21T22:12:13.515Z,8.40
2023-04-21T22:16:16.987Z,8.40
2023-04-21T22:20:21.931Z,8.50
2023-04-21T22:24:25.256Z,8.40
2023-04-21T22:28:30.047Z,8.40
2023-04-21T22:32:33.369Z,8.40
2023-04-21T22:36:36.756Z,8.40
2023-04-21T22:40:39.931Z,8.30
2023-04-21T22:44:44.827Z,8.30
2023-04-21T22:48:48.828Z,8.20
2023-04-21T22:52:52.399Z,8.20
2023-04-21T22:56:56.442Z,8.10
2023-04-21T23:01:01.860Z,8.10
2023-04-21T23:05:07.103Z,8.20
2023-04-21T23:09:10.219Z,8.10
2023-04-21T23:13:13.531Z,8.00
2023-04-21T23:17:18.124Z,7.90
2023-04-21T23:21:21.864Z,7.90
2023-04-21T23:25:25.628Z,7.90
2023-04-21T23:29:28.937Z,7.70
2023-04-21T23:33:33.606Z,7.60
2023-04-21T23:37:36.975Z,7.50
2023-04-21T23:41:40.596Z,7.40
2023-04-21T23:45:43.820Z,7.20
2023-04-21T23:49:48.625Z,7.00
2023-04-21T23:53:52.051Z,7.00
2023-04-21T23:57:55.356Z,6.90
